createdAt,value
2023-04-10T00:02:25.781Z,7.14
2023-04-10T00:04:53.612Z,7.02
2023-04-10T00:07:21.254Z,6.98
2023-04-10T00:09:49.127Z,7.06
2023-04-10T00:12:16.861Z,7.08
2023-04-10T00:14:45.786Z,6.96
2023-04-10T00:17:13.456Z,6.94
2023-04-10T00:19:41.064Z,6.95
2023-04-10T00:22:08.667Z,6.76
2023-04-10T00:24:36.263Z,6.77
2023-04-10T00:27:03.956Z,6.72
2023-04-10T00:29:31.551Z,6.80
2023-04-10T00:32:00.556Z,6.59
2023-04-10T00:34:28.169Z,6.60
2023-04-10T00:36:55.921Z,6.61
2023-04-10T00:39:23.499Z,6.61
2023-04-10T00:41:51.123Z,6.58
2023-04-10T00:44:18.745Z,6.55
2023-04-10T00:46:46.296Z,6.63
2023-04-10T00:49:15.405Z,6.67
2023-04-10T00:51:43.720Z,6.58
2023-04-10T00:54:12.076Z,6.63
2023-04-10T00:56:39.671Z,6.63
2023-04-10T00:59:07.551Z,6.54
2023-04-10T01:01:35.388Z,6.54
2023-04-10T01:04:03.624Z,6.49
2023-04-10T01:06:42.914Z,6.57
2023-04-10T01:09:14.514Z,6.44
2023-04-10T01:11:49.250Z,6.43
2023-04-10T01:14:22.909Z,6.36
2023-04-10T01:16:54.875Z,6.39
2023-04-10T01:19:31.469Z,6.31
2023-04-10T01:22:02.210Z,6.24
2023-04-10T01:24:43.998Z,6.18
2023-04-10T01:27:17.174Z,6.19
2023-04-10T01:29:48.790Z,6.08
2023-04-10T01:32:18.977Z,6.09
2023-04-10T01:34:48.174Z,6.12
2023-04-10T01:37:19.268Z,6.00
2023-04-10T01:39:48.681Z,6.09
2023-04-10T01:42:16.779Z,6.01
2023-04-10T01:44:48.627Z,5.94
2023-04-10T01:47:17.967Z,6.01
2023-04-10T01:49:48.308Z,5.90
2023-04-10T01:52:16.460Z,5.93
2023-04-10T01:54:45.697Z,5.86
2023-04-10T01:57:15.005Z,5.84
2023-04-10T01:59:42.780Z,5.83
2023-04-10T02:02:12.191Z,5.86
2023-04-10T02:04:40.468Z,5.86
2023-04-10T02:07:11.192Z,5.81
2023-04-10T02:09:45.775Z,5.87
2023-04-10T02:12:17.639Z,5.84
2023-04-10T02:14:47.831Z,5.78
2023-04-10T02:17:19.703Z,5.75
2023-04-10T02:19:48.220Z,5.65
2023-04-10T02:22:16.896Z,5.81
2023-04-10T02:24:44.460Z,5.88
2023-04-10T02:27:12.128Z,5.77
2023-04-10T02:29:39.806Z,5.73
2023-04-10T02:32:07.871Z,5.79
2023-04-10T02:34:36.788Z,5.70
2023-04-10T02:37:04.399Z,5.68
2023-04-10T02:39:31.988Z,5.71
2023-04-10T02:41:59.561Z,5.69
2023-04-10T02:44:27.178Z,5.76
2023-04-10T02:46:54.797Z,5.67
2023-04-10T02:49:22.458Z,5.75
2023-04-10T02:51:51.438Z,5.69
2023-04-10T02:54:18.997Z,5.77
2023-04-10T02:56:47.252Z,5.68
2023-04-10T02:59:14.856Z,5.69
2023-04-10T03:01:42.720Z,5.62
2023-04-10T03:04:10.598Z,5.59
2023-04-10T03:06:38.282Z,5.57
2023-04-10T03:09:07.207Z,5.47
2023-04-10T03:11:35.772Z,5.36
2023-04-10T03:14:03.693Z,5.32
2023-04-10T03:16:31.299Z,5.47
2023-04-10T03:18:59.443Z,5.28
2023-04-10T03:21:27.310Z,5.25
2023-04-10T03:23:55.076Z,5.19
2023-04-10T03:26:24.349Z,5.27
2023-04-10T03:28:52.208Z,5.33
2023-04-10T03:31:19.920Z,5.27
2023-04-10T03:33:47.576Z,5.15
2023-04-10T03:36:15.283Z,5.12
2023-04-10T03:38:42.946Z,5.18
2023-04-10T03:41:10.888Z,5.09
2023-04-10T03:43:40.175Z,5.21
2023-04-10T03:46:08.070Z,5.13
2023-04-10T03:48:35.683Z,5.24
2023-04-10T03:51:03.364Z,5.12
2023-04-10T03:53:35.883Z,5.08
2023-04-10T03:56:03.882Z,4.99
2023-04-10T03:58:31.482Z,5.05
2023-04-10T04:01:00.427Z,5.01
2023-04-10T04:03:28.219Z,5.02
2023-04-10T04:05:56.216Z,4.94
2023-04-10T04:08:23.824Z,4.86
2023-04-10T04:10:51.363Z,4.89
2023-04-10T04:13:18.880Z,4.85
2023-04-10T04:15:47.784Z,4.87
2023-04-10T04:18:16.781Z,4.80
2023-04-10T04:20:44.545Z,4.79
2023-04-10T04:23:12.193Z,4.79
2023-04-10T04:25:39.782Z,4.78
2023-04-10T04:28:07.490Z,4.73
2023-04-10T04:30:35.273Z,4.86
2023-04-10T04:33:02.920Z,4.85
2023-04-10T04:35:31.923Z,4.82
2023-04-10T04:37:59.557Z,4.78
2023-04-10T04:40:27.152Z,4.71
2023-04-10T04:42:54.799Z,4.81
2023-04-10T04:45:22.461Z,4.74
2023-04-10T04:47:50.272Z,4.76
2023-04-10T04:50:18.056Z,4.78
2023-04-10T04:52:46.983Z,4.69
2023-04-10T04:55:14.601Z,4.66
2023-04-10T04:57:42.384Z,4.72
2023-04-10T05:00:10.924Z,4.80
2023-04-10T05:02:38.621Z,4.79
2023-04-10T05:05:06.995Z,4.65
2023-04-10T05:07:34.581Z,4.69
2023-04-10T05:10:03.514Z,4.80
2023-04-10T05:12:31.162Z,4.72
2023-04-10T05:14:58.717Z,4.75
2023-04-10T05:17:26.378Z,4.86
2023-04-10T05:19:53.964Z,4.91
2023-04-10T05:22:21.556Z,4.78
2023-04-10T05:24:49.189Z,4.72
2023-04-10T05:27:18.306Z,4.68
2023-04-10T05:29:45.852Z,4.75
2023-04-10T05:32:13.468Z,4.64
2023-04-10T05:34:41.064Z,4.65
2023-04-10T05:37:09.247Z,4.63
2023-04-10T05:39:37.056Z,4.51
2023-04-10T05:42:04.825Z,4.78
2023-04-10T05:44:33.799Z,4.74
2023-04-10T05:47:01.364Z,4.72
2023-04-10T05:49:28.982Z,4.75
2023-04-10T05:51:56.637Z,4.86
2023-04-10T05:54:24.245Z,4.72
2023-04-10T05:56:51.812Z,4.86
2023-04-10T05:59:19.454Z,4.89
2023-04-10T06:01:48.452Z,4.95
2023-04-10T06:04:16.251Z,4.98
2023-04-10T06:06:44.022Z,4.98
2023-04-10T06:09:11.611Z,5.00
2023-04-10T06:11:39.255Z,5.12
2023-04-10T06:14:06.986Z,5.18
2023-04-10T06:16:35.078Z,5.24
2023-04-10T06:19:04.108Z,5.30
2023-04-10T06:21:31.775Z,5.36
2023-04-10T06:23:59.366Z,5.50
2023-04-10T06:26:27.015Z,5.60
2023-04-10T06:28:54.980Z,5.68
2023-04-10T06:31:23.034Z,5.71
2023-04-10T06:33:50.786Z,5.78
2023-04-10T06:36:19.821Z,5.96
2023-04-10T06:38:47.410Z,6.11
2023-04-10T06:41:15.074Z,6.24
2023-04-10T06:43:42.673Z,6.39
2023-04-10T06:46:10.429Z,6.50
2023-04-10T06:48:38.088Z,6.30
2023-04-10T06:51:05.936Z,6.51
2023-04-10T06:53:34.818Z,6.78
2023-04-10T06:56:03.594Z,6.68
2023-04-10T06:58:31.706Z,6.86
2023-04-10T07:01:04.180Z,6.91
2023-04-10T07:03:32.452Z,6.85
2023-04-10T07:06:01.978Z,7.16
2023-04-10T07:08:29.660Z,7.13
2023-04-10T07:10:58.996Z,7.22
2023-04-10T07:13:27.071Z,7.40
2023-04-10T07:15:54.774Z,7.43
2023-04-10T07:18:22.418Z,7.41
2023-04-10T07:20:51.863Z,7.64
2023-04-10T07:23:20.353Z,7.74
2023-04-10T07:25:48.018Z,7.84
2023-04-10T07:28:17.020Z,8.17
2023-04-10T07:30:44.749Z,8.06
2023-04-10T07:33:12.573Z,8.08
2023-04-10T07:35:40.784Z,8.12
2023-04-10T07:38:08.429Z,8.17
2023-04-10T07:40:36.080Z,8.21
2023-04-10T07:43:03.694Z,8.23
2023-04-10T07:45:33.030Z,8.39
2023-04-10T07:48:02.156Z,8.40
2023-04-10T07:50:30.476Z,8.69
2023-04-10T07:52:59.142Z,8.86
2023-04-10T07:55:26.690Z,9.13
2023-04-10T07:57:54.295Z,9.29
2023-04-10T08:00:21.998Z,9.46
2023-04-10T08:02:51.344Z,9.59
2023-04-10T08:05:19.432Z,9.72
2023-04-10T08:07:47.058Z,9.99
2023-04-10T08:10:14.686Z,10.09
2023-04-10T08:12:42.311Z,10.23
2023-04-10T08:15:10.645Z,10.54
2023-04-10T08:17:38.265Z,10.50
2023-04-10T08:20:09.094Z,10.40
2023-04-10T08:22:36.705Z,10.55
2023-04-10T08:25:04.826Z,10.64
2023-04-10T08:27:32.402Z,10.90
2023-04-10T08:30:00.057Z,10.99
2023-04-10T08:32:27.699Z,11.25
2023-04-10T08:34:55.443Z,11.52
2023-04-10T08:37:26.292Z,11.80
2023-04-10T08:39:54.042Z,11.89
2023-04-10T08:42:22.257Z,11.89
2023-04-10T08:44:50.248Z,11.99
2023-04-10T08:47:22.295Z,12.02
2023-04-10T08:49:55.393Z,12.14
2023-04-10T08:52:26.895Z,12.20
2023-04-10T08:54:56.023Z,12.34
2023-04-10T08:57:23.955Z,12.54
2023-04-10T08:59:52.507Z,12.66
2023-04-10T09:02:20.382Z,12.73
2023-04-10T09:04:50.282Z,12.84
2023-04-10T09:07:18.334Z,13.05
2023-04-10T09:09:47.304Z,13.15
2023-04-10T09:12:15.588Z,13.08
2023-04-10T09:14:44.237Z,13.02
2023-04-10T09:17:14.505Z,12.88
2023-04-10T09:19:42.786Z,13.04
2023-04-10T09:22:10.858Z,13.20
2023-04-10T09:24:39.399Z,12.97
2023-04-10T09:27:08.836Z,13.20
2023-04-10T09:29:42.461Z,13.17
2023-04-10T09:32:10.056Z,13.42
2023-04-10T09:34:52.987Z,13.43
2023-04-10T09:37:22.746Z,13.36
2023-04-10T09:39:50.658Z,13.79
2023-04-10T09:42:31.309Z,13.78
2023-04-10T09:44:59.005Z,13.85
2023-04-10T09:47:27.075Z,14.10
2023-04-10T09:49:55.596Z,14.21
2023-04-10T09:52:27.099Z,14.15
2023-04-10T09:54:55.241Z,14.19
2023-04-10T09:57:25.349Z,14.32
2023-04-10T09:59:54.773Z,14.33
2023-04-10T10:02:23.810Z,14.44
2023-04-10T10:04:52.519Z,14.51
2023-04-10T10:07:21.826Z,14.64
2023-04-10T10:09:51.626Z,14.78
2023-04-10T10:12:25.799Z,14.88
2023-04-10T10:14:58.711Z,14.90
2023-04-10T10:17:29.026Z,14.99
2023-04-10T10:20:03.876Z,15.13
2023-04-10T10:22:31.591Z,15.38
2023-04-10T10:25:00.513Z,15.29
2023-04-10T10:27:30.051Z,15.23
2023-04-10T10:29:57.765Z,15.29
2023-04-10T10:32:25.868Z,15.32
2023-04-10T10:34:54.307Z,15.39
2023-04-10T10:37:22.250Z,15.59
2023-04-10T10:39:57.372Z,15.66
2023-04-10T10:42:32.010Z,15.73
2023-04-10T10:45:08.319Z,15.93
2023-04-10T10:47:41.728Z,15.86
2023-04-10T10:50:09.837Z,15.98
2023-04-10T10:52:45.257Z,16.00
2023-04-10T10:55:37.653Z,16.10
2023-04-10T10:58:07.911Z,16.22
2023-04-10T11:01:09.833Z,16.24
2023-04-10T11:03:47.857Z,16.18
2023-04-10T11:06:17.172Z,16.50
2023-04-10T11:08:46.052Z,16.54
2023-04-10T11:11:18.648Z,16.73
2023-04-10T11:14:18.856Z,16.84
2023-04-10T11:16:49.649Z,16.85
2023-04-10T11:19:31.001Z,16.72
2023-04-10T11:22:21.155Z,16.50
2023-04-10T11:24:59.322Z,16.69
2023-04-10T11:27:49.382Z,16.69
2023-04-10T11:30:42.261Z,16.62
2023-04-10T11:33:10.058Z,16.96
2023-04-10T11:35:37.808Z,16.94
2023-04-10T11:38:17.320Z,16.75
2023-04-10T11:40:59.358Z,16.95
2023-04-10T11:43:27.379Z,17.22
2023-04-10T11:46:04.600Z,17.16
2023-04-10T11:48:32.753Z,17.28
2023-04-10T11:51:02.021Z,17.14
2023-04-10T11:53:30.146Z,17.21
2023-04-10T11:55:58.451Z,17.04
2023-04-10T11:58:27.089Z,17.15
2023-04-10T12:01:20.029Z,17.07
2023-04-10T12:03:57.461Z,17.12
2023-04-10T12:06:25.588Z,17.08
2023-04-10T12:08:53.767Z,17.36
2023-04-10T12:11:23.026Z,17.61
2023-04-10T12:13:53.707Z,17.36
2023-04-10T12:16:23.169Z,17.46
2023-04-10T12:18:52.740Z,17.62
2023-04-10T12:21:21.387Z,17.52
2023-04-10T12:23:49.142Z,17.70
2023-04-10T12:26:19.035Z,17.74
2023-04-10T12:28:52.596Z,17.71
2023-04-10T12:31:28.149Z,17.83
2023-04-10T12:33:57.717Z,18.03
2023-04-10T12:36:27.070Z,17.88
2023-04-10T12:39:11.196Z,18.08
2023-04-10T12:41:38.820Z,18.19
2023-04-10T12:44:11.476Z,18.16
2023-04-10T12:46:41.360Z,18.02
2023-04-10T12:49:13.698Z,18.03
2023-04-10T12:52:08.386Z,18.03
2023-04-10T12:55:05.694Z,18.14
2023-04-10T13:00:42.215Z,18.05
2023-04-10T13:03:11.339Z,17.95
2023-04-10T13:05:39.112Z,18.10
2023-04-10T13:08:06.828Z,18.21
2023-04-10T13:10:34.402Z,18.03
2023-04-10T13:13:07.021Z,17.97
2023-04-10T13:15:35.512Z,18.03
2023-04-10T13:18:08.371Z,17.94
2023-04-10T13:20:37.899Z,18.10
2023-04-10T13:23:05.942Z,18.04
2023-04-10T13:25:34.702Z,18.07
2023-04-10T13:28:03.476Z,18.21
2023-04-10T13:30:31.359Z,18.36
2023-04-10T13:33:02.039Z,17.94
2023-04-10T13:35:29.981Z,17.99
2023-04-10T13:37:59.381Z,18.16
2023-04-10T13:40:27.157Z,18.27
2023-04-10T13:42:54.955Z,17.96
2023-04-10T13:45:22.968Z,18.04
2023-04-10T13:47:50.765Z,18.10
2023-04-10T13:50:18.932Z,17.94
2023-04-10T13:52:46.500Z,17.83
2023-04-10T13:55:15.529Z,17.87
2023-04-10T13:57:43.323Z,18.01
2023-04-10T14:00:11.953Z,17.83
2023-04-10T14:02:41.302Z,17.82
2023-04-10T14:05:13.956Z,17.64
2023-04-10T14:07:41.729Z,17.81
2023-04-10T14:10:10.984Z,17.86
2023-04-10T14:12:40.782Z,17.97
2023-04-10T14:15:22.323Z,17.76
2023-04-10T14:17:50.782Z,17.79
2023-04-10T14:20:20.264Z,17.83
2023-04-10T14:22:48.453Z,17.98
2023-04-10T14:25:16.951Z,18.11
2023-04-10T14:27:46.814Z,17.95
2023-04-10T14:30:15.014Z,17.96
2023-04-10T14:32:44.101Z,17.96
2023-04-10T14:35:11.917Z,18.02
2023-04-10T14:37:41.071Z,18.05
2023-04-10T14:40:11.851Z,17.92
2023-04-10T14:42:40.044Z,17.87
2023-04-10T14:45:10.558Z,17.81
2023-04-10T14:47:38.934Z,17.81
2023-04-10T14:50:11.137Z,17.72
2023-04-10T14:52:38.827Z,17.60
2023-04-10T14:55:07.215Z,17.55
2023-04-10T14:57:36.039Z,17.57
2023-04-10T15:00:03.928Z,17.61
2023-04-10T15:02:33.108Z,17.57
2023-04-10T15:05:00.855Z,17.60
2023-04-10T15:07:28.603Z,17.46
2023-04-10T15:09:58.196Z,17.33
2023-04-10T15:12:28.396Z,17.42
2023-04-10T15:14:58.062Z,17.37
2023-04-10T15:17:26.154Z,17.32
2023-04-10T15:19:55.563Z,17.31
2023-04-10T15:22:23.571Z,17.33
2023-04-10T15:24:51.624Z,17.26
2023-04-10T15:27:21.508Z,17.29
2023-04-10T15:29:52.711Z,17.10
2023-04-10T15:32:21.885Z,17.28
2023-04-10T15:34:51.579Z,17.20
2023-04-10T15:37:24.214Z,17.17
2023-04-10T15:39:56.044Z,17.20
2023-04-10T15:42:24.016Z,17.25
2023-04-10T15:44:52.480Z,17.17
2023-04-10T15:47:20.619Z,17.25
2023-04-10T15:49:52.908Z,17.23
2023-04-10T15:52:22.432Z,17.18
2023-04-10T15:54:55.743Z,17.16
2023-04-10T15:57:24.337Z,17.02
2023-04-10T15:59:53.923Z,16.95
2023-04-10T16:02:21.798Z,16.89
2023-04-10T16:04:50.344Z,16.90
2023-04-10T16:07:22.729Z,16.94
2023-04-10T16:09:58.565Z,16.84
2023-04-10T16:12:26.655Z,16.83
2023-04-10T16:14:54.815Z,16.85
2023-04-10T16:17:22.693Z,16.70
2023-04-10T16:19:50.964Z,16.74
2023-04-10T16:22:18.827Z,16.87
2023-04-10T16:24:47.513Z,16.66
2023-04-10T16:27:16.778Z,16.51
2023-04-10T16:29:46.826Z,16.49
2023-04-10T16:32:14.880Z,16.38
2023-04-10T16:34:42.756Z,16.40
2023-04-10T16:37:17.375Z,16.14
2023-04-10T16:39:46.183Z,16.24
2023-04-10T16:42:22.136Z,16.22
2023-04-10T16:44:50.168Z,16.02
2023-04-10T16:47:17.852Z,16.01
2023-04-10T16:49:46.229Z,15.95
2023-04-10T16:52:13.808Z,15.99
2023-04-10T16:54:41.853Z,15.96
2023-04-10T16:57:11.951Z,15.82
2023-04-10T16:59:40.932Z,15.80
2023-04-10T17:02:08.620Z,15.79
2023-04-10T17:04:36.230Z,15.63
2023-04-10T17:07:03.774Z,15.67
2023-04-10T17:09:32.361Z,15.56
2023-04-10T17:12:00.107Z,15.55
2023-04-10T17:14:27.895Z,15.42
2023-04-10T17:16:57.012Z,15.39
2023-04-10T17:19:24.621Z,15.25
2023-04-10T17:21:53.004Z,15.26
2023-04-10T17:24:20.653Z,15.21
2023-04-10T17:26:48.327Z,15.18
2023-04-10T17:29:15.877Z,15.18
2023-04-10T17:31:43.472Z,15.10
2023-04-10T17:34:13.249Z,15.09
2023-04-10T17:36:42.779Z,14.96
2023-04-10T17:39:14.207Z,15.03
2023-04-10T17:41:42.010Z,14.80
2023-04-10T17:44:11.744Z,14.79
2023-04-10T17:46:39.385Z,14.81
2023-04-10T17:49:07.046Z,14.82
2023-04-10T17:51:36.184Z,14.69
2023-04-10T17:54:04.101Z,14.57
2023-04-10T17:56:31.681Z,14.63
2023-04-10T17:59:00.460Z,14.59
2023-04-10T18:01:30.089Z,14.56
2023-04-10T18:03:59.078Z,14.54
2023-04-10T18:06:27.554Z,14.49
2023-04-10T18:08:57.187Z,14.63
2023-04-10T18:11:25.305Z,14.39
2023-04-10T18:13:52.967Z,14.40
2023-04-10T18:16:20.619Z,14.57
2023-04-10T18:18:48.316Z,14.50
2023-04-10T18:21:16.037Z,14.57
2023-04-10T18:23:44.532Z,14.29
2023-04-10T18:26:14.110Z,14.40
2023-04-10T18:28:43.239Z,14.21
2023-04-10T18:31:12.551Z,14.31
2023-04-10T18:33:40.183Z,14.14
2023-04-10T18:36:10.671Z,14.14
2023-04-10T18:38:41.064Z,13.97
2023-04-10T18:41:08.784Z,14.06
2023-04-10T18:43:38.321Z,14.04
2023-04-10T18:46:06.557Z,14.35
2023-04-10T18:48:35.109Z,14.28
2023-04-10T18:51:02.771Z,14.24
2023-04-10T18:53:30.377Z,14.34
2023-04-10T18:55:58.014Z,14.35
2023-04-10T18:58:25.693Z,14.32
2023-04-10T19:00:55.562Z,14.27
2023-04-10T19:03:24.120Z,14.20
2023-04-10T19:05:51.924Z,14.29
2023-04-10T19:08:19.917Z,14.36
2023-04-10T19:10:51.043Z,14.32
2023-04-10T19:13:18.827Z,14.34
2023-04-10T19:15:48.097Z,14.16
2023-04-10T19:18:47.552Z,14.11
2023-04-10T19:21:24.109Z,14.30
2023-04-10T19:23:53.012Z,14.23
2023-04-10T19:26:20.649Z,14.06
2023-04-10T19:28:50.513Z,13.94
2023-04-10T19:31:18.274Z,13.79
2023-04-10T19:33:47.409Z,13.63
2023-04-10T19:36:16.201Z,13.58
2023-04-10T19:38:44.891Z,13.45
2023-04-10T19:41:16.077Z,13.30
2023-04-10T19:43:43.921Z,13.37
2023-04-10T19:46:17.733Z,13.39
2023-04-10T19:48:47.036Z,13.31
2023-04-10T19:51:14.662Z,13.34
2023-04-10T19:53:42.627Z,13.26
2023-04-10T19:56:10.505Z,13.23
2023-04-10T19:58:41.121Z,13.24
2023-04-10T20:01:10.330Z,13.23
2023-04-10T20:03:38.544Z,13.19
2023-04-10T20:06:08.747Z,13.16
2023-04-10T20:08:36.542Z,13.16
2023-04-10T20:11:06.186Z,13.16
2023-04-10T20:13:34.448Z,13.22
2023-04-10T20:16:02.165Z,13.04
2023-04-10T20:18:29.946Z,13.08
2023-04-10T20:20:57.561Z,13.20
2023-04-10T20:23:26.581Z,13.13
2023-04-10T20:25:54.219Z,13.22
2023-04-10T20:28:21.869Z,13.17
2023-04-10T20:30:49.570Z,13.16
2023-04-10T20:33:17.323Z,13.15
2023-04-10T20:35:44.980Z,13.13
2023-04-10T20:38:12.616Z,13.17
2023-04-10T20:40:41.535Z,13.19
2023-04-10T20:43:12.062Z,13.10
2023-04-10T20:45:39.815Z,13.09
2023-04-10T20:48:09.032Z,13.10
2023-04-10T20:50:37.448Z,13.16
2023-04-10T20:53:05.032Z,13.18
2023-04-10T20:55:32.663Z,13.14
2023-04-10T20:58:01.691Z,13.19
2023-04-10T21:00:30.864Z,13.28
2023-04-10T21:02:58.827Z,13.28
2023-04-10T21:05:26.529Z,13.15
2023-04-10T21:07:54.265Z,13.18
2023-04-10T21:10:22.104Z,13.25
2023-04-10T21:12:49.718Z,13.27
2023-04-10T21:15:18.934Z,13.24
2023-04-10T21:17:46.853Z,13.25
2023-04-10T21:20:14.569Z,13.25
2023-04-10T21:22:42.165Z,13.20
2023-04-10T21:25:10.500Z,13.31
2023-04-10T21:27:38.106Z,13.32
2023-04-10T21:30:06.754Z,13.34
2023-04-10T21:32:35.688Z,13.23
2023-04-10T21:35:03.323Z,13.27
2023-04-10T21:37:30.953Z,13.26
2023-04-10T21:39:58.686Z,13.24
2023-04-10T21:42:26.362Z,13.15
2023-04-10T21:44:54.398Z,13.20
2023-04-10T21:47:22.100Z,13.20
2023-04-10T21:49:51.950Z,13.21
2023-04-10T21:52:22.583Z,13.24
2023-04-10T21:54:50.281Z,13.09
2023-04-10T21:57:17.965Z,13.19
2023-04-10T21:59:45.588Z,13.15
2023-04-10T22:02:13.245Z,13.17
2023-04-10T22:04:51.496Z,13.13
2023-04-10T22:07:22.655Z,13.15
2023-04-10T22:09:50.391Z,13.12
2023-04-10T22:12:17.945Z,13.01
2023-04-10T22:14:46.065Z,13.04
2023-04-10T22:17:13.796Z,13.04
2023-04-10T22:19:41.641Z,13.04
2023-04-10T22:22:09.354Z,12.99
2023-04-10T22:24:38.287Z,12.89
2023-04-10T22:27:06.202Z,12.77
2023-04-10T22:29:34.799Z,12.92
2023-04-10T22:32:02.686Z,12.90
2023-04-10T22:34:30.647Z,12.88
2023-04-10T22:36:58.530Z,12.87
2023-04-10T22:39:26.449Z,12.97
2023-04-10T22:41:55.760Z,12.85
2023-04-10T22:44:26.392Z,12.82
2023-04-10T22:46:54.167Z,12.77
2023-04-10T22:49:22.306Z,12.68
2023-04-10T22:51:49.910Z,12.74
2023-04-10T22:54:17.793Z,12.76
2023-04-10T22:56:45.464Z,12.65
2023-04-10T22:59:17.319Z,12.70
2023-04-10T23:01:44.966Z,12.66
2023-04-10T23:04:12.632Z,12.60
2023-04-10T23:06:41.149Z,12.54
2023-04-10T23:09:08.895Z,12.57
2023-04-10T23:11:37.294Z,12.57
2023-04-10T23:14:04.959Z,12.48
2023-04-10T23:16:34.322Z,12.44
2023-04-10T23:19:02.391Z,12.29
2023-04-10T23:21:31.611Z,12.14
2023-04-10T23:24:00.323Z,11.90
2023-04-10T23:26:31.778Z,11.81
2023-04-10T23:29:02.620Z,11.62
2023-04-10T23:31:30.898Z,11.56
2023-04-10T23:34:01.378Z,11.49
2023-04-10T23:36:30.010Z,11.34
2023-04-10T23:38:58.529Z,11.17
2023-04-10T23:41:26.663Z,11.13
2023-04-10T23:43:57.106Z,11.03
2023-04-10T23:46:25.135Z,11.01
2023-04-10T23:48:54.161Z,10.96
2023-04-10T23:51:24.337Z,10.76
2023-04-10T23:53:52.997Z,10.67
2023-04-10T23:56:21.473Z,10.62
2023-04-10T23:58:49.782Z,10.44
